Latest Weather Observations for Albury

IDN60801

Issued at 10:52 pm EST Wednesday 12 August 2020 (issued every 10 minutes, with the page automatically refreshed every 10 minutes)

About weather observations | Map of weather stations | Latest weather observations for NSW | Other Formats
Station Details ID: 072160 Name: ALBURY AIRPORT AWS Lat: -36.07 Lon: 146.95 Height: 163.5 m
Data from the previous 72 hours. | See also: Recent months at Albury
Date/Time
EST
Temp
°C
App
Temp
°C
Dew
Point
°C
Rel
Hum
%
Delta-T
°C
Wind Press
QNH
hPa
Press
MSL
hPa
Rain since
9am
mm
Dir  Spd
km/h
Gust
km/h
Spd
kts
Gust
kts
12/10:30pm 10.2 9.2 10.2 100 0.0 SE 6 9 3 5 1012.2 1012.4 0.8
12/10:00pm 9.9 9.9 9.9 100 0.0 CALM 0 0 0 0 1012.2 1012.4 0.8
12/09:30pm 9.6 9.5 9.6 100 0.0 CALM 0 6 0 3 1012.1 1012.3 0.8
12/09:00pm 10.3 10.4 10.3 100 0.0 CALM 0 0 0 0 1012.1 1012.3 0.8
12/08:30pm 10.5 9.0 10.5 100 0.0 SE 9 11 5 6 1011.9 1012.1 0.8
12/08:00pm 10.7 9.6 10.7 100 0.0 SE 7 11 4 6 1011.6 1011.8 0.8
12/07:30pm 11.1 10.3 11.1 100 0.0 SE 6 7 3 4 1011.4 1011.6 0.8
12/07:00pm 11.6 10.4 11.6 100 0.0 SE 9 11 5 6 1011.2 1011.4 0.8
12/06:30pm 12.0 11.4 11.8 99 0.1 ENE 6 7 3 4 1010.9 1011.1 0.8
12/06:00pm 12.3 10.7 11.7 96 0.3 NE 11 15 6 8 1010.6 1010.8 0.4
12/05:30pm 13.0 11.8 11.6 91 0.7 ENE 9 15 5 8 1010.4 1010.6 0.0
12/05:00pm 13.7 11.5 10.9 83 1.5 NE 13 19 7 10 1010.3 1010.5 0.0
12/04:30pm 14.2 12.0 10.8 80 1.8 NE 13 17 7 9 1010.1 1010.3 0.0
12/04:00pm 14.4 12.1 10.6 78 2.0 NE 13 17 7 9 1010.0 1010.2 0.0
12/03:30pm 14.5 11.8 10.5 77 2.1 NNE 15 19 8 10 1010.0 1010.2 0.0
12/03:00pm 14.6 11.9 10.4 76 2.2 NE 15 20 8 11 1010.2 1010.4 0.0
12/02:30pm 14.1 12.0 9.9 76 2.2 NE 11 13 6 7 1010.4 1010.6 0.0
12/02:00pm 13.9 11.5 10.1 78 2.0 NE 13 17 7 9 1010.5 1010.7 0.0
12/01:30pm 13.8 10.5 9.5 75 2.2 NNE 17 22 9 12 1010.8 1011.0 0.0
12/01:00pm 14.0 11.0 9.2 73 2.5 NE 15 22 8 12 1011.1 1011.3 0.0
12/12:30pm 13.6 10.4 10.0 79 1.9 NE 17 24 9 13 1011.7 1011.9 0.0
12/12:00pm 12.7 10.9 9.5 81 1.6 NE 9 15 5 8 1012.4 1012.6 0.0
12/11:30am 11.7 9.6 9.8 88 1.0 ENE 11 17 6 9 1012.8 1013.0 0.0
12/11:00am 10.1 8.8 9.3 95 0.4 SSE 6 7 3 4 1013.2 1013.5 0.0
12/10:30am 9.4 7.9 8.3 93 0.5 SE 6 7 3 4 1013.7 1014.0 0.0
12/10:00am 9.1 8.2 7.9 92 0.6 SE 2 6 1 3 1014.0 1014.3 0.0
12/09:30am 8.6 8.0 7.5 93 0.5 CALM 0 6 0 3 1014.2 1014.5 0.0
12/09:00am 8.1 7.6 7.7 97 0.2 CALM 0 0 0 0 1014.3 1014.6 0.0
12/08:30am 7.6 7.0 7.6 100 0.0 CALM 0 0 0 0 1014.4 1014.7 0.0
12/08:00am 6.9 6.2 6.9 100 0.0 CALM 0 0 0 0 1014.6 1014.9 0.0
12/07:30am 6.7 5.9 6.7 100 0.0 CALM 0 0 0 0 1014.8 1015.1 0.0
12/07:00am 6.2 5.3 6.2 100 0.0 CALM 0 0 0 0 1014.7 1015.0 0.0
12/06:30am 5.9 5.0 5.9 100 0.0 CALM 0 0 0 0 1014.6 1014.9 0.0
12/06:00am 5.6 3.5 5.6 100 0.0 NNW 6 9 3 5 1014.6 1014.9 0.0
12/05:30am 5.4 4.4 5.4 100 0.0 CALM 0 0 0 0 1014.5 1014.8 0.0
12/05:00am 5.4 3.6 5.4 100 0.0 NNE 4 9 2 5 1014.5 1014.8 0.0
12/04:30am 5.2 4.1 5.2 100 0.0 CALM 0 0 0 0 1014.5 1014.8 0.0
12/04:21am 5.0 3.9 5.0 100 0.0 CALM 0 0 0 0 1014.7 1015.0 0.0
12/04:03am 4.6 3.4 4.6 100 0.0 CALM 0 0 0 0 1014.7 1015.0 0.0
12/04:00am 4.7 3.5 4.7 100 0.0 CALM 0 0 0 0 1014.6 1014.9 0.0
12/03:30am 4.8 3.6 4.8 100 0.0 CALM 0 0 0 0 1014.8 1015.1 0.0
12/03:00am 5.5 4.5 5.5 100 0.0 CALM 0 0 0 0 1015.1 1015.4 0.0
12/02:34am 5.5 4.5 5.5 100 0.0 CALM 0 0 0 0 1015.5 1015.8 0.0
12/02:30am 5.4 4.4 5.4 100 0.0 CALM 0 0 0 0 1015.5 1015.8 0.0
12/02:14am 5.0 3.8 4.7 98 0.1 CALM 0 0 0 0 1015.6 1015.9 0.0
12/02:00am 5.8 4.8 5.7 99 0.0 CALM 0 0 0 0 1015.8 1016.0 0.0
12/01:30am 6.1 5.1 5.7 97 0.2 CALM 0 0 0 0 1016.0 1016.2 0.0
12/01:00am 7.0 5.1 6.6 97 0.2 N 6 7 3 4 1016.2 1016.4 0.0
12/12:30am 7.2 5.3 6.6 96 0.3 ENE 6 9 3 5 1016.4 1016.6 0.0
12/12:00am 7.7 5.8 6.8 94 0.4 ESE 6 7 3 4 1016.9 1017.1 0.0
 
Date/Time
EST
Temp
°C
App
Temp
°C
Dew
Point
°C
Rel
Hum
%
Delta-T
°C
Wind Press
QNH
hPa
Press
MSL
hPa
Rain since
9am
mm
Dir  Spd
km/h
Gust
km/h
Spd
kts
Gust
kts
11/11:30pm 7.6 7.0 7.2 97 0.2 CALM 0 4 0 2 1017.1 1017.3 0.0
11/11:00pm 6.8 4.6 6.2 96 0.3 SW 7 9 4 5 1017.2 1017.4 0.0
11/10:30pm 7.6 5.5 6.7 94 0.4 ENE 7 9 4 5 1017.1 1017.3 0.0
11/10:00pm 7.8 5.8 6.9 94 0.4 NNE 7 9 4 5 1017.1 1017.3 0.0
11/09:30pm 6.9 4.7 6.0 94 0.4 NW 7 9 4 5 1017.6 1017.8 0.0
11/09:00pm 7.8 7.0 6.6 92 0.6 CALM 0 0 0 0 1017.2 1017.4 0.0
11/08:30pm 8.0 6.4 6.3 89 0.8 N 4 6 2 3 1016.9 1017.1 0.0
11/08:00pm 8.4 6.5 6.5 88 0.9 ENE 6 7 3 4 1016.7 1016.9 0.0
11/07:30pm 9.0 7.2 7.0 87 0.9 ENE 6 7 3 4 1016.7 1016.9 0.0
11/07:00pm 9.5 7.5 7.1 85 1.1 SE 7 9 4 5 1016.9 1017.1 0.0
11/06:30pm 9.5 7.4 6.6 82 1.4 SE 7 9 4 5 1017.0 1017.2 0.0
11/06:00pm 10.6 8.1 6.6 76 1.9 E 9 13 5 7 1017.1 1017.3 0.0
11/05:30pm 10.9 8.8 6.8 76 2.0 E 7 9 4 5 1017.1 1017.3 0.0
11/05:00pm 12.0 9.1 6.5 69 2.6 E 11 17 6 9 1017.4 1017.6 0.0
11/04:30pm 12.5 9.9 6.1 65 3.0 E 9 13 5 7 1017.6 1017.8 0.0
11/04:00pm 13.0 10.4 6.1 63 3.3 NE 9 11 5 6 1017.8 1018.0 0.0
11/03:30pm 12.9 10.2 5.8 62 3.4 N 9 11 5 6 1018.4 1018.7 0.0
11/03:00pm 13.1 10.4 5.5 60 3.6 NNE 9 13 5 7 1018.2 1018.4 0.0
11/02:30pm 13.4 10.6 5.3 58 3.8 NE 9 19 5 10 1018.2 1018.4 0.0
11/02:00pm 13.4 9.9 5.6 59 3.7 NE 13 17 7 9 1018.7 1019.0 0.0
11/01:30pm 13.0 10.2 5.2 59 3.7 NE 9 13 5 7 1018.9 1019.2 0.0
11/01:00pm 12.6 8.6 5.1 60 3.5 NNE 15 22 8 12 1019.1 1019.4 0.0
11/12:30pm 12.9 8.5 4.8 58 3.8 NNE 17 24 9 13 1019.5 1019.8 0.0
11/12:00pm 12.0 9.8 7.7 75 2.1 SE 9 11 5 6 1020.2 1020.5 0.0
11/11:30am 10.4 7.8 6.2 75 2.0 E 9 15 5 8 1020.4 1020.7 0.0
11/11:00am 10.3 8.0 7.4 82 1.4 E 9 13 5 7 1020.8 1021.1 0.0
11/10:30am 8.9 5.9 6.0 82 1.3 E 11 13 6 7 1021.4 1021.7 0.0
11/10:00am 8.4 6.3 5.7 83 1.2 ENE 6 9 3 5 1021.8 1022.1 0.0
11/09:30am 6.8 5.7 5.3 90 0.7 CALM 0 6 0 3 1021.9 1022.2 0.0
11/09:00am 5.7 3.5 5.1 96 0.3 E 6 7 3 4 1021.8 1022.1 0.0
11/08:30am 4.2 2.9 3.9 98 0.1 CALM 0 0 0 0 1022.3 1022.5 0.0
11/08:00am 1.6 -0.1 1.6 100 0.0 CALM 0 0 0 0 1022.0 1022.3 0.0
11/07:30am 0.9 -0.9 0.9 100 0.0 CALM 0 0 0 0 1021.5 1021.8 0.0
11/07:10am 0.4 -1.5 0.4 100 0.0 CALM 0 0 0 0 1021.5 1021.8 0.0
11/07:00am 0.5 -1.4 0.5 100 0.0 CALM 0 0 0 0 1021.4 1021.7 0.0
11/06:38am 0.1 -1.9 0.1 100 0.0 CALM 0 0 0 0 1021.4 1021.7 0.0
11/06:30am 0.6 -1.7 0.6 100 0.0 E 2 7 1 4 1021.3 1021.6 0.0
11/06:00am 1.1 -2.0 1.1 100 0.0 NNW 7 9 4 5 1021.7 1022.0 0.0
11/05:33am 1.3 -0.5 1.3 100 0.0 CALM 0 0 0 0 1021.7 1022.0 0.0
11/05:30am 1.3 -0.5 1.3 100 0.0 CALM 0 0 0 0 1021.6 1021.9 0.0
11/05:04am 1.0 -0.8 1.0 100 0.0 CALM 0 0 0 0 1021.7 1022.0 0.0
11/05:00am 0.9 -0.9 0.9 100 0.0 CALM 0 0 0 0 1021.7 1022.0 0.0
11/04:56am 0.8 -1.1 0.8 100 0.0 CALM 0 0 0 0 1021.7 1022.0 0.0
11/04:37am 1.2 -0.6 1.2 100 0.0 CALM 0 0 0 0 1021.7 1022.0 0.0
11/04:30am 1.0 -0.8 1.0 100 0.0 CALM 0 0 0 0 1021.6 1021.9 0.0
11/04:00am 1.1 -0.7 1.1 100 0.0 CALM 0 0 0 0 1021.4 1021.7 0.0
11/03:30am 1.6 -1.3 1.6 100 0.0 NE 6 7 3 4 1021.4 1021.7 0.0
11/03:01am 1.6 -0.1 1.6 100 0.0 CALM 0 0 0 0 1021.3 1021.6 0.0
11/03:00am 1.6 -0.1 1.6 100 0.0 CALM 0 0 0 0 1021.3 1021.6 0.0
11/02:30am 1.8 0.1 1.8 100 0.0 CALM 0 0 0 0 1021.3 1021.6 0.0
11/02:19am 1.3 -0.5 1.3 100 0.0 CALM 0 0 0 0 1021.2 1021.5 0.0
11/02:00am 1.6 -0.5 1.6 100 0.0 E 2 7 1 4 1021.5 1021.8 0.0
11/01:30am 1.5 -0.3 1.2 98 0.1 CALM 0 6 0 3 1021.9 1022.2 0.0
11/01:10am 2.5 0.9 2.5 100 0.0 CALM 0 0 0 0 1021.9 1022.2 0.0
11/01:00am 2.2 0.5 2.1 99 0.0 CALM 0 0 0 0 1022.2 1022.4 0.0
11/12:52am 1.9 0.2 1.8 99 0.0 CALM 0 0 0 0 1022.2 1022.4 0.0
11/12:30am 2.6 1.0 2.5 99 0.0 CALM 0 0 0 0 1022.4 1022.6 0.0
11/12:00am 2.6 -0.4 2.2 97 0.2 ENE 7 9 4 5 1022.6 1022.8 0.0
 
Date/Time
EST
Temp
°C
App
Temp
°C
Dew
Point
°C
Rel
Hum
%
Delta-T
°C
Wind Press
QNH
hPa
Press
MSL
hPa
Rain since
9am
mm
Dir  Spd
km/h
Gust
km/h
Spd
kts
Gust
kts
10/11:30pm 3.5 2.1 3.5 100 0.0 CALM 0 0 0 0 1022.6 1022.8 0.0
10/11:00pm 3.3 1.8 2.9 97 0.2 CALM 0 0 0 0 1022.2 1022.4 0.0
10/10:30pm 4.0 2.7 3.9 99 0.0 CALM 0 0 0 0 1021.8 1022.1 0.0
10/10:00pm 4.5 3.1 3.8 95 0.3 CALM 0 0 0 0 1021.6 1021.9 0.0
10/09:30pm 5.2 4.0 4.5 95 0.3 CALM 0 0 0 0 1021.5 1021.8 0.0
10/09:00pm 5.4 3.0 4.4 93 0.4 ENE 6 7 3 4 1021.2 1021.5 0.0
10/08:30pm 6.0 4.7 4.3 89 0.7 CALM 0 0 0 0 1020.8 1021.1 0.0
10/08:00pm 7.1 5.7 5.3 88 0.8 N 2 7 1 4 1020.5 1020.8 0.0
10/07:30pm 7.8 6.4 5.3 84 1.1 NNE 2 7 1 4 1020.3 1020.6 0.0
10/07:00pm 8.6 6.4 5.5 81 1.4 N 6 7 3 4 1020.1 1020.4 0.0
10/06:30pm 8.9 6.6 4.9 76 1.8 N 6 7 3 4 1019.9 1020.2 0.0
10/06:00pm 11.7 9.2 4.9 63 3.1 NW 7 9 4 5 1019.7 1020.0 0.0
10/05:30pm 13.0 10.4 4.4 56 4.0 W 7 9 4 5 1019.7 1020.0 0.0
10/05:00pm 15.3 14.1 4.4 48 5.1 CALM 0 0 0 0 1019.6 1019.9 0.0
10/04:30pm 16.3 14.7 2.3 39 6.3 CALM 0 0 0 0 1019.6 1019.9 0.0
10/04:00pm 16.3 14.4 3.0 41 6.1 ENE 2 7 1 4 1019.5 1019.8 0.0
10/03:30pm 16.3 12.8 3.4 42 6.0 ENE 11 13 6 7 1019.2 1019.5 0.0
10/03:00pm 16.1 12.8 2.2 39 6.2 E 9 13 5 7 1019.3 1019.6 0.0
10/02:30pm 15.9 12.4 3.7 44 5.7 ESE 11 17 6 9 1019.5 1019.8 0.0
10/02:00pm 15.4 11.0 2.9 43 5.7 ESE 15 19 8 10 1019.6 1019.9 0.0
10/01:30pm 15.2 10.9 3.0 44 5.6 ESE 15 19 8 10 1019.8 1020.1 0.0
10/01:00pm 15.0 11.0 2.9 44 5.5 SE 13 19 7 10 1020.1 1020.4 0.0
10/12:30pm 14.9 11.5 4.0 48 5.1 SE 11 17 6 9 1020.3 1020.6 0.0
10/12:00pm 14.1 10.0 4.1 51 4.6 SE 15 22 8 12 1021.0 1021.3 0.0
10/11:30am 13.7 9.1 3.8 51 4.5 SE 17 24 9 13 1021.3 1021.6 0.0
10/11:00am 13.5 8.5 3.8 52 4.4 ESE 19 30 10 16 1021.4 1021.7 0.0
10/10:30am 13.1 8.6 4.3 55 4.0 ESE 17 22 9 12 1021.7 1022.0 0.0
10/10:00am 12.1 7.2 4.3 59 3.5 SE 19 26 10 14 1021.6 1021.9 0.0
10/09:30am 11.7 7.2 4.4 61 3.3 SE 17 22 9 12 1021.6 1021.9 0.0
10/09:00am 11.0 6.0 3.8 61 3.2 ESE 19 28 10 15 1021.2 1021.5 0.2
10/08:30am 9.7 5.8 3.2 64 2.8 SE 13 15 7 8 1021.5 1021.8 0.2
10/08:00am 8.4 4.6 4.0 74 1.9 SSE 13 15 7 8 1021.4 1021.7 0.2
10/07:30am 4.1 1.2 2.5 89 0.6 S 7 13 4 7 1021.3 1021.6 0.2
10/07:00am 3.4 0.3 1.3 86 0.8 ENE 7 9 4 5 1021.0 1021.3 0.2
10/06:30am 5.3 3.2 2.0 79 1.3 E 2 7 1 4 1020.5 1020.8 0.2
10/06:00am 6.6 4.2 1.9 72 1.9 SSW 4 9 2 5 1020.0 1020.3 0.2
10/05:30am 7.0 4.2 2.3 72 2.0 SSE 6 9 3 5 1019.8 1020.1 0.2
10/05:00am 7.4 4.1 2.5 71 2.0 SSW 9 9 5 5 1019.2 1019.5 0.2
10/04:30am 7.4 4.1 2.3 70 2.1 SSW 9 11 5 6 1018.8 1019.1 0.2
10/04:00am 8.0 4.3 2.3 67 2.4 SSW 11 15 6 8 1018.6 1018.9 0.2
10/03:30am 6.6 3.2 1.7 71 2.0 WSW 9 13 5 7 1018.2 1018.4 0.2
10/03:00am 6.7 3.2 1.2 68 2.2 SW 9 13 5 7 1018.0 1018.2 0.2
10/02:30am 9.8 6.5 2.6 61 3.1 SSE 9 13 5 7 1018.1 1018.3 0.2
10/02:00am 8.4 5.4 2.0 64 2.7 S 7 9 4 5 1017.9 1018.1 0.2
10/01:30am 9.6 5.9 2.5 61 3.0 S 11 17 6 9 1017.8 1018.0 0.2
10/01:00am 10.2 5.9 3.0 61 3.1 SSE 15 20 8 11 1017.6 1017.8 0.2
10/12:30am 10.0 5.7 3.1 62 3.0 S 15 19 8 10 1017.5 1017.7 0.2
10/12:00am 9.4 5.5 3.2 65 2.7 SSW 13 15 7 8 1017.6 1017.8 0.2
 
Date/Time
EST
Temp
°C
App
Temp
°C
Dew
Point
°C
Rel
Hum
%
Delta-T
°C
Wind Press
QNH
hPa
Press
MSL
hPa
Rain since
9am
mm
Dir  Spd
km/h
Gust
km/h
Spd
kts
Gust
kts
09/11:30pm 10.0 6.2 3.7 65 2.8 SSW 13 17 7 9 1017.5 1017.7 0.2
09/11:00pm 9.9 6.1 4.1 67 2.6 SSW 13 17 7 9 1017.7 1017.9 0.2

Other formats

Comma delimited format used in spreadsheet applications
http://www.bom.gov.au/fwo/IDN60801/IDN60801.95896.axf

JavaScript Object Notation format (JSON) in row-major order
http://www.bom.gov.au/fwo/IDN60801/IDN60801.95896.json

Data quality

Most of these data are generated automatically and are frequently updated. Quality checks on data are not normally performed. It is possible for incorrect values to appear. Refer to information at About Latest Weather Observations and please check the disclaimer before using these data.